sensor_id;sensor_type;location;lat;lon;timestamp;temperature;humidity
69359;HTU21D;56520;49.066;8.660;2023-04-12T00:00:25;9.74;68.97
69359;HTU21D;56520;49.066;8.660;2023-04-12T00:02:51;9.74;69.15
69359;HTU21D;56520;49.066;8.660;2023-04-12T00:05:21;9.69;70.65
69359;HTU21D;56520;49.066;8.660;2023-04-12T00:07:48;9.62;71.19
69359;HTU21D;56520;49.066;8.660;2023-04-12T00:10:14;9.54;71.56
69359;HTU21D;56520;49.066;8.660;2023-04-12T00:12:40;9.45;72.32
69359;HTU21D;56520;49.066;8.660;2023-04-12T00:15:06;9.38;72.96
69359;HTU21D;56520;49.066;8.660;2023-04-12T00:17:31;9.33;73.52
69359;HTU21D;56520;49.066;8.660;2023-04-12T00:19:57;9.25;73.74
69359;HTU21D;56520;49.066;8.660;2023-04-12T00:22:24;9.17;74.28
69359;HTU21D;56520;49.066;8.660;2023-04-12T00:24:50;9.11;74.69
69359;HTU21D;56520;49.066;8.660;2023-04-12T00:27:16;9.08;75.15
69359;HTU21D;56520;49.066;8.660;2023-04-12T00:29:41;9.06;76.26
69359;HTU21D;56520;49.066;8.660;2023-04-12T00:32:06;9.03;76.84
69359;HTU21D;56520;49.066;8.660;2023-04-12T00:34:32;9.00;78.36
69359;HTU21D;56520;49.066;8.660;2023-04-12T00:36:58;8.94;78.74
69359;HTU21D;56520;49.066;8.660;2023-04-12T00:39:23;8.89;78.47
69359;HTU21D;56520;49.066;8.660;2023-04-12T00:41:49;8.81;78.34
69359;HTU21D;56520;49.066;8.660;2023-04-12T00:44:15;8.75;79.01
69359;HTU21D;56520;49.066;8.660;2023-04-12T00:46:42;8.68;79.45
69359;HTU21D;56520;49.066;8.660;2023-04-12T00:49:08;8.61;79.99
69359;HTU21D;56520;49.066;8.660;2023-04-12T00:51:33;8.55;79.59
69359;HTU21D;56520;49.066;8.660;2023-04-12T00:53:59;8.51;80.91
69359;HTU21D;56520;49.066;8.660;2023-04-12T00:56:26;8.48;81.36
69359;HTU21D;56520;49.066;8.660;2023-04-12T00:58:55;8.46;84.84
69359;HTU21D;56520;49.066;8.660;2023-04-12T01:01:24;8.36;83.10
69359;HTU21D;56520;49.066;8.660;2023-04-12T01:03:51;8.33;83.45
69359;HTU21D;56520;49.066;8.660;2023-04-12T01:09:22;8.28;84.29
69359;HTU21D;56520;49.066;8.660;2023-04-12T01:17:13;8.15;85.76
69359;HTU21D;56520;49.066;8.660;2023-04-12T01:20:10;8.08;85.71
69359;HTU21D;56520;49.066;8.660;2023-04-12T01:28:11;8.00;86.04
69359;HTU21D;56520;49.066;8.660;2023-04-12T01:30:40;7.97;85.93
69359;HTU21D;56520;49.066;8.660;2023-04-12T01:33:09;7.96;85.66
69359;HTU21D;56520;49.066;8.660;2023-04-12T01:35:36;7.94;85.76
69359;HTU21D;56520;49.066;8.660;2023-04-12T01:38:02;7.92;85.78
69359;HTU21D;56520;49.066;8.660;2023-04-12T01:40:29;7.97;86.95
69359;HTU21D;56520;49.066;8.660;2023-04-12T01:43:09;7.93;86.60
69359;HTU21D;56520;49.066;8.660;2023-04-12T01:45:34;7.91;86.74
69359;HTU21D;56520;49.066;8.660;2023-04-12T01:48:01;7.91;87.06
69359;HTU21D;56520;49.066;8.660;2023-04-12T01:53:13;7.86;88.88
69359;HTU21D;56520;49.066;8.660;2023-04-12T01:55:42;7.84;89.40
69359;HTU21D;56520;49.066;8.660;2023-04-12T01:58:11;7.82;89.81
69359;HTU21D;56520;49.066;8.660;2023-04-12T02:00:37;7.87;90.41
69359;HTU21D;56520;49.066;8.660;2023-04-12T02:03:04;7.81;90.89
69359;HTU21D;56520;49.066;8.660;2023-04-12T02:05:31;7.77;90.99
69359;HTU21D;56520;49.066;8.660;2023-04-12T02:07:57;7.75;90.74
69359;HTU21D;56520;49.066;8.660;2023-04-12T02:10:31;7.74;91.08
69359;HTU21D;56520;49.066;8.660;2023-04-12T02:13:00;7.72;91.66
69359;HTU21D;56520;49.066;8.660;2023-04-12T02:15:27;7.72;91.74
69359;HTU21D;56520;49.066;8.660;2023-04-12T02:17:55;7.71;91.65
69359;HTU21D;56520;49.066;8.660;2023-04-12T02:20:24;7.70;92.14
69359;HTU21D;56520;49.066;8.660;2023-04-12T02:22:50;7.69;91.99
69359;HTU21D;56520;49.066;8.660;2023-04-12T02:25:15;7.69;92.38
69359;HTU21D;56520;49.066;8.660;2023-04-12T02:27:44;7.70;92.56
69359;HTU21D;56520;49.066;8.660;2023-04-12T02:30:10;7.68;92.17
69359;HTU21D;56520;49.066;8.660;2023-04-12T02:32:36;7.68;92.98
69359;HTU21D;56520;49.066;8.660;2023-04-12T02:35:09;7.68;92.98
69359;HTU21D;56520;49.066;8.660;2023-04-12T02:37:34;7.65;93.03
69359;HTU21D;56520;49.066;8.660;2023-04-12T02:40:01;7.65;92.98
69359;HTU21D;56520;49.066;8.660;2023-04-12T02:42:27;7.65;92.88
69359;HTU21D;56520;49.066;8.660;2023-04-12T02:44:52;7.68;93.88
69359;HTU21D;56520;49.066;8.660;2023-04-12T02:47:17;7.65;93.66
69359;HTU21D;56520;49.066;8.660;2023-04-12T02:49:43;7.67;93.54
69359;HTU21D;56520;49.066;8.660;2023-04-12T02:52:08;7.68;93.39
69359;HTU21D;56520;49.066;8.660;2023-04-12T02:54:33;7.68;93.04
69359;HTU21D;56520;49.066;8.660;2023-04-12T02:56:59;7.67;93.11
69359;HTU21D;56520;49.066;8.660;2023-04-12T02:59:24;7.68;93.69
69359;HTU21D;56520;49.066;8.660;2023-04-12T03:01:50;7.64;93.28
69359;HTU21D;56520;49.066;8.660;2023-04-12T03:04:15;7.65;93.61
69359;HTU21D;56520;49.066;8.660;2023-04-12T03:06:41;7.63;93.39
69359;HTU21D;56520;49.066;8.660;2023-04-12T03:09:17;7.64;93.29
69359;HTU21D;56520;49.066;8.660;2023-04-12T03:11:42;7.62;93.29
69359;HTU21D;56520;49.066;8.660;2023-04-12T03:14:08;7.62;93.32
69359;HTU21D;56520;49.066;8.660;2023-04-12T03:16:33;7.63;93.46
69359;HTU21D;56520;49.066;8.660;2023-04-12T03:18:59;7.61;92.98
69359;HTU21D;56520;49.066;8.660;2023-04-12T03:21:25;7.61;92.72
69359;HTU21D;56520;49.066;8.660;2023-04-12T03:23:52;7.64;92.76
69359;HTU21D;56520;49.066;8.660;2023-04-12T03:26:18;7.63;93.08
69359;HTU21D;56520;49.066;8.660;2023-04-12T03:28:45;7.62;93.05
69359;HTU21D;56520;49.066;8.660;2023-04-12T03:31:11;7.62;93.01
69359;HTU21D;56520;49.066;8.660;2023-04-12T03:33:37;7.63;92.81
69359;HTU21D;56520;49.066;8.660;2023-04-12T03:36:03;7.64;92.93
69359;HTU21D;56520;49.066;8.660;2023-04-12T03:38:29;7.65;93.53
69359;HTU21D;56520;49.066;8.660;2023-04-12T03:40:57;7.64;93.86
69359;HTU21D;56520;49.066;8.660;2023-04-12T03:43:23;7.64;93.63
69359;HTU21D;56520;49.066;8.660;2023-04-12T03:45:49;7.63;93.47
69359;HTU21D;56520;49.066;8.660;2023-04-12T03:48:14;7.62;93.85
69359;HTU21D;56520;49.066;8.660;2023-04-12T03:50:40;7.61;93.94
69359;HTU21D;56520;49.066;8.660;2023-04-12T03:53:11;7.60;93.44
69359;HTU21D;56520;49.066;8.660;2023-04-12T03:55:37;7.60;93.97
69359;HTU21D;56520;49.066;8.660;2023-04-12T03:58:03;7.59;93.63
69359;HTU21D;56520;49.066;8.660;2023-04-12T04:00:29;7.58;93.85
69359;HTU21D;56520;49.066;8.660;2023-04-12T04:02:56;7.58;93.78
69359;HTU21D;56520;49.066;8.660;2023-04-12T04:05:30;7.57;93.66
69359;HTU21D;56520;49.066;8.660;2023-04-12T04:07:56;7.58;93.88
69359;HTU21D;56520;49.066;8.660;2023-04-12T04:10:29;7.56;93.70
69359;HTU21D;56520;49.066;8.660;2023-04-12T04:12:55;7.57;93.90
69359;HTU21D;56520;49.066;8.660;2023-04-12T04:15:21;7.55;93.94
69359;HTU21D;56520;49.066;8.660;2023-04-12T04:17:46;7.55;94.19
69359;HTU21D;56520;49.066;8.660;2023-04-12T04:20:13;7.56;94.79
69359;HTU21D;56520;49.066;8.660;2023-04-12T04:22:39;7.55;94.81
69359;HTU21D;56520;49.066;8.660;2023-04-12T04:25:06;7.55;94.52
69359;HTU21D;56520;49.066;8.660;2023-04-12T04:27:32;7.55;94.84
69359;HTU21D;56520;49.066;8.660;2023-04-12T04:29:59;7.54;94.87
69359;HTU21D;56520;49.066;8.660;2023-04-12T04:32:27;7.57;95.16
69359;HTU21D;56520;49.066;8.660;2023-04-12T04:34:55;7.56;95.16
69359;HTU21D;56520;49.066;8.660;2023-04-12T04:37:20;7.56;95.05
69359;HTU21D;56520;49.066;8.660;2023-04-12T04:39:46;7.55;94.91
69359;HTU21D;56520;49.066;8.660;2023-04-12T04:42:11;7.57;95.17
69359;HTU21D;56520;49.066;8.660;2023-04-12T04:44:37;7.56;95.17
69359;HTU21D;56520;49.066;8.660;2023-04-12T04:47:03;7.56;95.00
69359;HTU21D;56520;49.066;8.660;2023-04-12T04:49:29;7.59;95.10
69359;HTU21D;56520;49.066;8.660;2023-04-12T04:52:01;7.59;95.40
69359;HTU21D;56520;49.066;8.660;2023-04-12T04:54:27;7.58;95.26
69359;HTU21D;56520;49.066;8.660;2023-04-12T04:56:52;7.60;95.33
69359;HTU21D;56520;49.066;8.660;2023-04-12T04:59:18;7.62;95.33
69359;HTU21D;56520;49.066;8.660;2023-04-12T05:01:44;7.63;95.25
69359;HTU21D;56520;49.066;8.660;2023-04-12T05:04:10;7.65;95.15
69359;HTU21D;56520;49.066;8.660;2023-04-12T05:06:35;7.68;95.07
69359;HTU21D;56520;49.066;8.660;2023-04-12T05:09:01;7.71;95.11
69359;HTU21D;56520;49.066;8.660;2023-04-12T05:11:26;7.72;95.02
69359;HTU21D;56520;49.066;8.660;2023-04-12T05:13:52;7.72;95.13
69359;HTU21D;56520;49.066;8.660;2023-04-12T05:16:17;7.72;95.06
69359;HTU21D;56520;49.066;8.660;2023-04-12T05:18:43;7.75;95.00
69359;HTU21D;56520;49.066;8.660;2023-04-12T05:21:09;7.78;94.77
69359;HTU21D;56520;49.066;8.660;2023-04-12T05:23:35;7.78;95.04
69359;HTU21D;56520;49.066;8.660;2023-04-12T05:26:01;7.79;94.74
69359;HTU21D;56520;49.066;8.660;2023-04-12T05:28:27;7.81;94.59
69359;HTU21D;56520;49.066;8.660;2023-04-12T05:30:52;7.82;94.02
69359;HTU21D;56520;49.066;8.660;2023-04-12T05:33:17;7.85;94.15
69359;HTU21D;56520;49.066;8.660;2023-04-12T05:35:43;7.87;94.42
69359;HTU21D;56520;49.066;8.660;2023-04-12T05:38:08;7.88;94.37
69359;HTU21D;56520;49.066;8.660;2023-04-12T05:40:37;7.90;93.85
69359;HTU21D;56520;49.066;8.660;2023-04-12T05:43:02;7.92;94.09
69359;HTU21D;56520;49.066;8.660;2023-04-12T05:45:28;7.92;94.10
69359;HTU21D;56520;49.066;8.660;2023-04-12T05:47:54;7.97;93.95
69359;HTU21D;56520;49.066;8.660;2023-04-12T05:50:20;8.00;93.55
69359;HTU21D;56520;49.066;8.660;2023-04-12T05:52:49;8.07;93.30
69359;HTU21D;56520;49.066;8.660;2023-04-12T05:55:14;8.13;93.33
69359;HTU21D;56520;49.066;8.660;2023-04-12T05:57:43;8.21;92.95
69359;HTU21D;56520;49.066;8.660;2023-04-12T06:00:09;8.23;92.38
69359;HTU21D;56520;49.066;8.660;2023-04-12T06:02:39;8.22;92.60
69359;HTU21D;56520;49.066;8.660;2023-04-12T06:05:05;8.22;93.00
69359;HTU21D;56520;49.066;8.660;2023-04-12T06:07:30;8.27;93.00
69359;HTU21D;56520;49.066;8.660;2023-04-12T06:09:56;8.24;92.68
69359;HTU21D;56520;49.066;8.660;2023-04-12T06:12:21;8.23;92.72
69359;HTU21D;56520;49.066;8.660;2023-04-12T06:14:47;8.26;92.67
69359;HTU21D;56520;49.066;8.660;2023-04-12T06:17:12;8.30;93.04
69359;HTU21D;56520;49.066;8.660;2023-04-12T06:19:37;8.28;92.89
69359;HTU21D;56520;49.066;8.660;2023-04-12T06:22:03;8.32;92.66
69359;HTU21D;56520;49.066;8.660;2023-04-12T06:24:28;8.33;92.75
69359;HTU21D;56520;49.066;8.660;2023-04-12T06:26:54;8.31;92.42
69359;HTU21D;56520;49.066;8.660;2023-04-12T06:29:20;8.30;92.88
69359;HTU21D;56520;49.066;8.660;2023-04-12T06:31:45;8.33;92.79
69359;HTU21D;56520;49.066;8.660;2023-04-12T06:34:11;8.35;93.11
69359;HTU21D;56520;49.066;8.660;2023-04-12T06:36:36;8.35;92.80
69359;HTU21D;56520;49.066;8.660;2023-04-12T06:39:06;8.34;92.83
69359;HTU21D;56520;49.066;8.660;2023-04-12T06:41:32;8.35;92.90
69359;HTU21D;56520;49.066;8.660;2023-04-12T06:43:58;8.37;92.82
69359;HTU21D;56520;49.066;8.660;2023-04-12T06:46:26;8.42;93.28
69359;HTU21D;56520;49.066;8.660;2023-04-12T06:48:52;8.47;92.92
69359;HTU21D;56520;49.066;8.660;2023-04-12T06:51:17;8.51;92.88
69359;HTU21D;56520;49.066;8.660;2023-04-12T06:53:43;8.58;93.04
69359;HTU21D;56520;49.066;8.660;2023-04-12T06:56:08;8.64;92.71
69359;HTU21D;56520;49.066;8.660;2023-04-12T06:58:34;8.68;91.86
69359;HTU21D;56520;49.066;8.660;2023-04-12T07:01:06;8.70;92.07
69359;HTU21D;56520;49.066;8.660;2023-04-12T07:03:33;8.74;92.34
69359;HTU21D;56520;49.066;8.660;2023-04-12T07:05:59;8.76;92.37
69359;HTU21D;56520;49.066;8.660;2023-04-12T07:08:33;8.82;92.42
69359;HTU21D;56520;49.066;8.660;2023-04-12T07:10:59;8.81;92.03
69359;HTU21D;56520;49.066;8.660;2023-04-12T07:13:24;8.86;91.83
69359;HTU21D;56520;49.066;8.660;2023-04-12T07:15:51;8.85;91.40
69359;HTU21D;56520;49.066;8.660;2023-04-12T07:18:17;8.85;91.89
69359;HTU21D;56520;49.066;8.660;2023-04-12T07:20:45;8.90;91.71
69359;HTU21D;56520;49.066;8.660;2023-04-12T07:23:12;8.89;91.60
69359;HTU21D;56520;49.066;8.660;2023-04-12T07:25:41;8.90;91.72
69359;HTU21D;56520;49.066;8.660;2023-04-12T07:28:06;8.93;92.22
69359;HTU21D;56520;49.066;8.660;2023-04-12T07:30:32;8.95;92.11
69359;HTU21D;56520;49.066;8.660;2023-04-12T07:32:57;9.01;92.01
69359;HTU21D;56520;49.066;8.660;2023-04-12T07:35:25;9.07;91.83
69359;HTU21D;56520;49.066;8.660;2023-04-12T07:37:50;9.12;92.03
69359;HTU21D;56520;49.066;8.660;2023-04-12T07:40:16;9.18;92.05
69359;HTU21D;56520;49.066;8.660;2023-04-12T07:42:41;9.23;92.27
69359;HTU21D;56520;49.066;8.660;2023-04-12T07:45:07;9.27;92.30
69359;HTU21D;56520;49.066;8.660;2023-04-12T07:47:32;9.32;91.79
69359;HTU21D;56520;49.066;8.660;2023-04-12T07:49:58;9.37;91.79
69359;HTU21D;56520;49.066;8.660;2023-04-12T07:52:23;9.46;91.57
69359;HTU21D;56520;49.066;8.660;2023-04-12T07:54:49;9.56;91.52
69359;HTU21D;56520;49.066;8.660;2023-04-12T07:57:17;9.69;91.27
69359;HTU21D;56520;49.066;8.660;2023-04-12T07:59:42;9.82;91.00
69359;HTU21D;56520;49.066;8.660;2023-04-12T08:02:08;9.81;89.07
69359;HTU21D;56520;49.066;8.660;2023-04-12T08:04:33;9.84;90.06
69359;HTU21D;56520;49.066;8.660;2023-04-12T08:06:58;9.94;90.67
69359;HTU21D;56520;49.066;8.660;2023-04-12T08:09:24;10.00;90.30
69359;HTU21D;56520;49.066;8.660;2023-04-12T08:11:49;10.03;90.23
69359;HTU21D;56520;49.066;8.660;2023-04-12T08:14:15;10.00;89.44
69359;HTU21D;56520;49.066;8.660;2023-04-12T08:16:40;10.05;90.28
69359;HTU21D;56520;49.066;8.660;2023-04-12T08:19:06;10.11;90.15
69359;HTU21D;56520;49.066;8.660;2023-04-12T08:21:32;10.25;90.12
69359;HTU21D;56520;49.066;8.660;2023-04-12T08:23:57;10.33;89.94
69359;HTU21D;56520;49.066;8.660;2023-04-12T08:26:23;10.31;88.71
69359;HTU21D;56520;49.066;8.660;2023-04-12T08:28:50;10.34;89.41
69359;HTU21D;56520;49.066;8.660;2023-04-12T08:31:16;10.48;89.64
69359;HTU21D;56520;49.066;8.660;2023-04-12T08:33:41;10.66;89.67
69359;HTU21D;56520;49.066;8.660;2023-04-12T08:36:07;10.80;88.18
69359;HTU21D;56520;49.066;8.660;2023-04-12T08:38:33;11.05;88.07
69359;HTU21D;56520;49.066;8.660;2023-04-12T08:40:58;11.23;87.44
69359;HTU21D;56520;49.066;8.660;2023-04-12T08:43:27;11.39;87.28
69359;HTU21D;56520;49.066;8.660;2023-04-12T08:45:54;11.59;86.51
69359;HTU21D;56520;49.066;8.660;2023-04-12T08:48:21;11.76;85.71
69359;HTU21D;56520;49.066;8.660;2023-04-12T08:50:47;11.89;84.38
69359;HTU21D;56520;49.066;8.660;2023-04-12T08:53:13;11.90;83.52
69359;HTU21D;56520;49.066;8.660;2023-04-12T08:55:43;11.99;83.44
69359;HTU21D;56520;49.066;8.660;2023-04-12T08:58:08;11.96;82.78
69359;HTU21D;56520;49.066;8.660;2023-04-12T09:00:36;11.92;84.05
69359;HTU21D;56520;49.066;8.660;2023-04-12T09:03:01;11.81;83.79
69359;HTU21D;56520;49.066;8.660;2023-04-12T09:05:28;11.72;84.62
69359;HTU21D;56520;49.066;8.660;2023-04-12T09:07:54;11.67;85.28
69359;HTU21D;56520;49.066;8.660;2023-04-12T09:10:31;11.69;85.38
69359;HTU21D;56520;49.066;8.660;2023-04-12T09:12:58;11.75;85.00
69359;HTU21D;56520;49.066;8.660;2023-04-12T09:15:23;11.81;85.19
69359;HTU21D;56520;49.066;8.660;2023-04-12T09:18:10;11.85;85.34
69359;HTU21D;56520;49.066;8.660;2023-04-12T09:20:38;11.76;85.04
69359;HTU21D;56520;49.066;8.660;2023-04-12T09:23:22;11.57;85.35
69359;HTU21D;56520;49.066;8.660;2023-04-12T09:25:51;11.51;86.11
69359;HTU21D;56520;49.066;8.660;2023-04-12T09:28:24;11.63;87.09
69359;HTU21D;56520;49.066;8.660;2023-04-12T09:30:55;11.73;86.17
69359;HTU21D;56520;49.066;8.660;2023-04-12T09:33:31;11.89;86.07
69359;HTU21D;56520;49.066;8.660;2023-04-12T09:36:01;12.08;85.26
69359;HTU21D;56520;49.066;8.660;2023-04-12T09:38:29;12.33;85.19
69359;HTU21D;56520;49.066;8.660;2023-04-12T09:40:54;12.53;84.26
69359;HTU21D;56520;49.066;8.660;2023-04-12T09:43:37;12.60;82.42
69359;HTU21D;56520;49.066;8.660;2023-04-12T09:46:11;12.79;83.81
69359;HTU21D;56520;49.066;8.660;2023-04-12T09:48:38;12.94;83.54
69359;HTU21D;56520;49.066;8.660;2023-04-12T09:51:05;12.87;83.59
69359;HTU21D;56520;49.066;8.660;2023-04-12T09:53:33;12.75;83.87
69359;HTU21D;56520;49.066;8.660;2023-04-12T09:56:03;12.62;84.23
69359;HTU21D;56520;49.066;8.660;2023-04-12T09:58:30;12.65;84.57
69359;HTU21D;56520;49.066;8.660;2023-04-12T10:00:59;12.88;83.74
69359;HTU21D;56520;49.066;8.660;2023-04-12T10:03:26;13.05;82.22
69359;HTU21D;56520;49.066;8.660;2023-04-12T10:05:53;13.25;82.47
69359;HTU21D;56520;49.066;8.660;2023-04-12T10:08:21;13.37;81.10
69359;HTU21D;56520;49.066;8.660;2023-04-12T10:10:46;13.36;80.52
69359;HTU21D;56520;49.066;8.660;2023-04-12T10:13:12;13.33;80.17
69359;HTU21D;56520;49.066;8.660;2023-04-12T10:15:38;13.22;80.33
69359;HTU21D;56520;49.066;8.660;2023-04-12T10:18:05;13.24;79.90
69359;HTU21D;56520;49.066;8.660;2023-04-12T10:20:31;13.29;79.64
69359;HTU21D;56520;49.066;8.660;2023-04-12T10:22:57;13.37;80.20
69359;HTU21D;56520;49.066;8.660;2023-04-12T10:25:24;13.39;79.38
69359;HTU21D;56520;49.066;8.660;2023-04-12T10:27:51;13.43;77.79
69359;HTU21D;56520;49.066;8.660;2023-04-12T10:30:30;13.34;79.87
69359;HTU21D;56520;49.066;8.660;2023-04-12T10:35:28;13.40;80.55
69359;HTU21D;56520;49.066;8.660;2023-04-12T10:38:01;13.58;79.21
69359;HTU21D;56520;49.066;8.660;2023-04-12T10:40:31;13.68;78.78
69359;HTU21D;56520;49.066;8.660;2023-04-12T10:45:48;13.89;76.92
69359;HTU21D;56520;49.066;8.660;2023-04-12T10:51:22;14.14;75.83
69359;HTU21D;56520;49.066;8.660;2023-04-12T10:54:29;14.21;74.12
69359;HTU21D;56520;49.066;8.660;2023-04-12T10:56:48;14.13;75.34
69359;HTU21D;56520;49.066;8.660;2023-04-12T10:59:13;14.08;74.96
69359;HTU21D;56520;49.066;8.660;2023-04-12T11:01:40;14.15;74.38
69359;HTU21D;56520;49.066;8.660;2023-04-12T11:04:13;14.25;73.98
69359;HTU21D;56520;49.066;8.660;2023-04-12T11:12:18;14.70;70.28
69359;HTU21D;56520;49.066;8.660;2023-04-12T11:14:48;14.77;71.94
69359;HTU21D;56520;49.066;8.660;2023-04-12T11:19:44;15.07;68.19
69359;HTU21D;56520;49.066;8.660;2023-04-12T11:22:12;14.96;69.95
69359;HTU21D;56520;49.066;8.660;2023-04-12T11:24:45;14.87;69.18
69359;HTU21D;56520;49.066;8.660;2023-04-12T11:27:12;14.85;69.83
69359;HTU21D;56520;49.066;8.660;2023-04-12T11:29:38;15.11;70.77
69359;HTU21D;56520;49.066;8.660;2023-04-12T11:32:09;15.67;65.15
69359;HTU21D;56520;49.066;8.660;2023-04-12T11:34:36;15.81;66.31
69359;HTU21D;56520;49.066;8.660;2023-04-12T11:37:03;15.77;67.30
69359;HTU21D;56520;49.066;8.660;2023-04-12T11:39:30;15.87;64.83
69359;HTU21D;56520;49.066;8.660;2023-04-12T11:41:56;16.01;64.92
69359;HTU21D;56520;49.066;8.660;2023-04-12T11:44:22;16.25;65.21
69359;HTU21D;56520;49.066;8.660;2023-04-12T11:46:48;16.39;63.27
69359;HTU21D;56520;49.066;8.660;2023-04-12T11:49:14;16.28;61.38
69359;HTU21D;56520;49.066;8.660;2023-04-12T11:51:43;15.96;63.92
69359;HTU21D;56520;49.066;8.660;2023-04-12T11:54:09;15.80;64.80
69359;HTU21D;56520;49.066;8.660;2023-04-12T11:56:35;15.74;65.01
69359;HTU21D;56520;49.066;8.660;2023-04-12T11:59:01;15.76;64.64
69359;HTU21D;56520;49.066;8.660;2023-04-12T12:01:29;15.91;63.69
69359;HTU21D;56520;49.066;8.660;2023-04-12T12:03:57;16.02;61.93
69359;HTU21D;56520;49.066;8.660;2023-04-12T12:06:23;15.92;61.95
69359;HTU21D;56520;49.066;8.660;2023-04-12T12:08:52;15.85;62.41
69359;HTU21D;56520;49.066;8.660;2023-04-12T12:11:22;15.85;62.60
69359;HTU21D;56520;49.066;8.660;2023-04-12T12:13:55;15.78;61.11
69359;HTU21D;56520;49.066;8.660;2023-04-12T12:16:28;15.66;62.05
69359;HTU21D;56520;49.066;8.660;2023-04-12T12:18:54;15.92;61.31
69359;HTU21D;56520;49.066;8.660;2023-04-12T12:21:20;15.93;60.83
69359;HTU21D;56520;49.066;8.660;2023-04-12T12:23:46;15.75;61.15
69359;HTU21D;56520;49.066;8.660;2023-04-12T12:28:51;15.48;62.23
69359;HTU21D;56520;49.066;8.660;2023-04-12T12:31:21;15.28;64.02
69359;HTU21D;56520;49.066;8.660;2023-04-12T12:33:47;15.14;64.27
69359;HTU21D;56520;49.066;8.660;2023-04-12T12:36:12;15.11;64.80
69359;HTU21D;56520;49.066;8.660;2023-04-12T12:38:41;15.21;63.66
69359;HTU21D;56520;49.066;8.660;2023-04-12T12:41:19;15.37;64.00
69359;HTU21D;56520;49.066;8.660;2023-04-12T12:43:46;15.62;62.87
69359;HTU21D;56520;49.066;8.660;2023-04-12T12:46:12;15.75;62.29
69359;HTU21D;56520;49.066;8.660;2023-04-12T12:48:39;15.73;62.00
69359;HTU21D;56520;49.066;8.660;2023-04-12T12:51:07;15.77;60.35
69359;HTU21D;56520;49.066;8.660;2023-04-12T12:53:33;15.90;61.35
69359;HTU21D;56520;49.066;8.660;2023-04-12T12:55:59;16.16;59.80
69359;HTU21D;56520;49.066;8.660;2023-04-12T12:58:24;16.16;59.51
69359;HTU21D;56520;49.066;8.660;2023-04-12T13:00:50;16.14;59.28
69359;HTU21D;56520;49.066;8.660;2023-04-12T13:03:15;16.11;60.95
69359;HTU21D;56520;49.066;8.660;2023-04-12T13:05:41;16.26;58.34
69359;HTU21D;56520;49.066;8.660;2023-04-12T13:08:06;16.19;59.25
69359;HTU21D;56520;49.066;8.660;2023-04-12T13:10:31;16.03;59.54
69359;HTU21D;56520;49.066;8.660;2023-04-12T13:12:57;15.87;60.75
69359;HTU21D;56520;49.066;8.660;2023-04-12T13:15:23;15.85;59.68
69359;HTU21D;56520;49.066;8.660;2023-04-12T13:17:50;15.83;60.77
69359;HTU21D;56520;49.066;8.660;2023-04-12T13:20:15;15.82;61.08
69359;HTU21D;56520;49.066;8.660;2023-04-12T13:22:41;15.83;61.86
69359;HTU21D;56520;49.066;8.660;2023-04-12T13:25:06;15.86;60.34
69359;HTU21D;56520;49.066;8.660;2023-04-12T13:27:32;15.78;61.00
69359;HTU21D;56520;49.066;8.660;2023-04-12T13:29:58;15.80;60.89
69359;HTU21D;56520;49.066;8.660;2023-04-12T13:32:23;15.83;61.06
69359;HTU21D;56520;49.066;8.660;2023-04-12T13:34:49;16.03;60.84
69359;HTU21D;56520;49.066;8.660;2023-04-12T13:37:14;16.35;58.91
69359;HTU21D;56520;49.066;8.660;2023-04-12T13:39:40;16.66;57.39
69359;HTU21D;56520;49.066;8.660;2023-04-12T13:42:06;16.98;55.90
69359;HTU21D;56520;49.066;8.660;2023-04-12T13:44:32;17.49;56.97
69359;HTU21D;56520;49.066;8.660;2023-04-12T13:46:58;17.94;54.43
69359;HTU21D;56520;49.066;8.660;2023-04-12T13:49:23;17.69;53.84
69359;HTU21D;56520;49.066;8.660;2023-04-12T13:51:48;18.05;53.58
69359;HTU21D;56520;49.066;8.660;2023-04-12T13:54:14;17.97;54.13
69359;HTU21D;56520;49.066;8.660;2023-04-12T13:56:40;17.73;54.30
69359;HTU21D;56520;49.066;8.660;2023-04-12T13:59:05;17.53;55.18
69359;HTU21D;56520;49.066;8.660;2023-04-12T14:01:31;17.23;54.90
69359;HTU21D;56520;49.066;8.660;2023-04-12T14:03:56;16.91;55.67
69359;HTU21D;56520;49.066;8.660;2023-04-12T14:06:22;16.67;57.45
69359;HTU21D;56520;49.066;8.660;2023-04-12T14:08:48;16.57;57.98
69359;HTU21D;56520;49.066;8.660;2023-04-12T14:11:13;16.39;57.94
69359;HTU21D;56520;49.066;8.660;2023-04-12T14:13:39;16.24;58.87
69359;HTU21D;56520;49.066;8.660;2023-04-12T14:16:04;16.07;59.53
69359;HTU21D;56520;49.066;8.660;2023-04-12T14:18:31;16.01;59.37
69359;HTU21D;56520;49.066;8.660;2023-04-12T14:20:56;15.83;60.76
69359;HTU21D;56520;49.066;8.660;2023-04-12T14:23:23;15.68;62.58
69359;HTU21D;56520;49.066;8.660;2023-04-12T14:25:51;15.49;64.37
69359;HTU21D;56520;49.066;8.660;2023-04-12T14:28:19;15.25;65.78
69359;HTU21D;56520;49.066;8.660;2023-04-12T14:30:56;15.08;67.68
69359;HTU21D;56520;49.066;8.660;2023-04-12T14:33:22;14.68;70.48
69359;HTU21D;56520;49.066;8.660;2023-04-12T14:35:49;14.44;72.80
69359;HTU21D;56520;49.066;8.660;2023-04-12T14:38:14;13.98;75.91
69359;HTU21D;56520;49.066;8.660;2023-04-12T14:40:42;13.34;78.78
69359;HTU21D;56520;49.066;8.660;2023-04-12T14:43:08;12.46;78.70
69359;HTU21D;56520;49.066;8.660;2023-04-12T14:45:35;11.63;81.61
69359;HTU21D;56520;49.066;8.660;2023-04-12T14:48:01;10.93;84.42
69359;HTU21D;56520;49.066;8.660;2023-04-12T14:50:26;10.53;86.09
69359;HTU21D;56520;49.066;8.660;2023-04-12T14:52:52;10.27;86.16
69359;HTU21D;56520;49.066;8.660;2023-04-12T14:55:18;10.18;87.62
69359;HTU21D;56520;49.066;8.660;2023-04-12T14:57:46;10.06;88.41
69359;HTU21D;56520;49.066;8.660;2023-04-12T15:00:12;9.98;88.93
69359;HTU21D;56520;49.066;8.660;2023-04-12T15:02:39;9.95;88.43
69359;HTU21D;56520;49.066;8.660;2023-04-12T15:05:05;10.01;88.79
69359;HTU21D;56520;49.066;8.660;2023-04-12T15:07:33;10.22;88.44
69359;HTU21D;56520;49.066;8.660;2023-04-12T15:09:58;10.50;89.00
69359;HTU21D;56520;49.066;8.660;2023-04-12T15:12:24;10.72;88.57
69359;HTU21D;56520;49.066;8.660;2023-04-12T15:14:50;10.92;87.80
69359;HTU21D;56520;49.066;8.660;2023-04-12T15:17:18;11.11;86.41
69359;HTU21D;56520;49.066;8.660;2023-04-12T15:19:43;11.37;85.96
69359;HTU21D;56520;49.066;8.660;2023-04-12T15:22:08;11.53;85.22
69359;HTU21D;56520;49.066;8.660;2023-04-12T15:24:34;11.64;84.94
69359;HTU21D;56520;49.066;8.660;2023-04-12T15:27:00;11.67;84.58
69359;HTU21D;56520;49.066;8.660;2023-04-12T15:29:25;11.49;85.00
69359;HTU21D;56520;49.066;8.660;2023-04-12T15:31:51;11.36;85.22
69359;HTU21D;56520;49.066;8.660;2023-04-12T15:34:16;11.38;86.53
69359;HTU21D;56520;49.066;8.660;2023-04-12T15:36:42;11.62;86.65
69359;HTU21D;56520;49.066;8.660;2023-04-12T15:39:09;11.81;86.29
69359;HTU21D;56520;49.066;8.660;2023-04-12T15:41:36;11.88;86.09
69359;HTU21D;56520;49.066;8.660;2023-04-12T15:44:06;11.82;85.53
69359;HTU21D;56520;49.066;8.660;2023-04-12T15:46:32;11.72;85.19
69359;HTU21D;56520;49.066;8.660;2023-04-12T15:48:57;11.76;84.11
69359;HTU21D;56520;49.066;8.660;2023-04-12T15:51:24;11.89;84.63
69359;HTU21D;56520;49.066;8.660;2023-04-12T15:53:54;12.10;83.94
69359;HTU21D;56520;49.066;8.660;2023-04-12T15:56:20;12.29;83.10